Time;durP1;ratioP1;P1;durP2;ratioP2;P2;SDS_P1;SDS_P2;PMS_P1;PMS_P2;Temp;Humidity;BMP_temperature;BMP_pressure;BME280_temperature;BME280_humidity;BME280_pressure;Samples;Min_cycle;Max_cycle;Signal;HPM_P1;HPM_P2
2023/01/12 00:00:49;;;;;;;;;;;6.70;99.90;;;;;;5079463;28;1041;-73
2023/01/12 00:03:15;;;;;;;;;;;6.70;99.90;;;;;;5079965;28;2177;-73
2023/01/12 00:05:41;;;;;;;;;;;6.70;99.90;;;;;;5078292;28;1285;-73
2023/01/12 00:08:06;;;;;;;;;;;6.70;99.90;;;;;;5078936;28;1237;-73
2023/01/12 00:10:32;;;;;;;;;;;6.90;99.90;;;;;;5078500;28;1273;-73
2023/01/12 00:12:58;;;;;;;;;;;7.00;99.90;;;;;;5059536;28;1961;-73
2023/01/12 00:18:15;;;;;;;;;;;7.10;99.90;;;;;;5078171;28;1370;-73
2023/01/12 00:20:46;;;;;;;;;;;7.00;99.90;;;;;;5078004;28;1261;-73
2023/01/12 00:23:11;;;;;;;;;;;7.10;99.90;;;;;;5060634;28;1130;-73
2023/01/12 00:25:37;;;;;;;;;;;6.90;99.90;;;;;;5078392;28;1036;-73
2023/01/12 00:28:03;;;;;;;;;;;6.90;99.90;;;;;;5076818;28;1024;-73
2023/01/12 00:30:28;;;;;;;;;;;6.90;99.90;;;;;;5077941;28;1008;-73
2023/01/12 00:32:54;;;;;;;;;;;6.90;99.90;;;;;;5078050;28;1975;-73
2023/01/12 00:35:20;;;;;;;;;;;7.00;99.90;;;;;;5076684;28;969;-73
2023/01/12 00:37:45;;;;;;;;;;;6.80;99.90;;;;;;5078392;28;1214;-73
2023/01/12 00:40:11;;;;;;;;;;;6.80;99.90;;;;;;5060340;28;1107;-74
2023/01/12 00:45:21;;;;;;;;;;;6.70;99.90;;;;;;5078302;28;993;-74
2023/01/12 00:47:47;;;;;;;;;;;6.80;99.90;;;;;;5077612;28;1040;-74
2023/01/12 00:50:13;;;;;;;;;;;6.80;99.90;;;;;;5078293;28;1064;-74
2023/01/12 00:52:38;;;;;;;;;;;6.70;99.90;;;;;;5077437;28;1921;-74
2023/01/12 00:55:04;;;;;;;;;;;6.80;99.90;;;;;;5058755;28;1190;-74
2023/01/12 00:57:30;;;;;;;;;;;6.90;99.90;;;;;;5082446;28;1388;-74
2023/01/12 00:59:58;;;;;;;;;;;6.90;99.90;;;;;;5081981;28;1016;-74
2023/01/12 01:02:23;;;;;;;;;;;7.00;99.90;;;;;;5080836;28;1066;-73
2023/01/12 01:04:49;;;;;;;;;;;7.00;99.90;;;;;;5082234;28;1070;-73
2023/01/12 01:07:16;;;;;;;;;;;6.90;99.90;;;;;;5081477;28;986;-73
2023/01/12 01:09:43;;;;;;;;;;;7.30;99.90;;;;;;5080853;28;1079;-72
2023/01/12 01:12:08;;;;;;;;;;;6.90;99.90;;;;;;5081711;28;1243;-72
2023/01/12 01:14:34;;;;;;;;;;;6.90;99.90;;;;;;5081527;28;1910;-72
2023/01/12 01:17:00;;;;;;;;;;;6.90;99.90;;;;;;5080820;28;1020;-72
2023/01/12 01:19:25;;;;;;;;;;;6.90;99.90;;;;;;5080669;28;1122;-72
2023/01/12 01:21:51;;;;;;;;;;;6.90;99.90;;;;;;5081944;28;1083;-73
2023/01/12 01:24:17;;;;;;;;;;;7.00;99.90;;;;;;5080287;28;1095;-73
2023/01/12 01:26:43;;;;;;;;;;;7.00;99.90;;;;;;5080642;28;997;-73
2023/01/12 01:29:08;;;;;;;;;;;7.00;99.90;;;;;;5080586;28;1096;-73
2023/01/12 01:31:34;;;;;;;;;;;6.90;99.90;;;;;;5080606;28;1059;-73
2023/01/12 01:34:00;;;;;;;;;;;6.90;99.90;;;;;;5080989;28;1969;-74
2023/01/12 01:36:26;;;;;;;;;;;7.00;99.90;;;;;;5081375;28;1012;-74
2023/01/12 01:38:51;;;;;;;;;;;7.00;99.90;;;;;;5081141;28;1278;-74
2023/01/12 01:41:21;;;;;;;;;;;7.00;99.90;;;;;;5063007;28;1041;-73
2023/01/12 01:43:50;;;;;;;;;;;7.00;99.90;;;;;;5080850;28;1028;-73
2023/01/12 01:46:20;;;;;;;;;;;7.00;99.90;;;;;;5080261;28;1139;-73
2023/01/12 01:48:46;;;;;;;;;;;7.00;99.90;;;;;;5080369;28;1059;-73
2023/01/12 01:51:13;;;;;;;;;;;7.10;99.90;;;;;;5062448;28;1074;-73
2023/01/12 01:53:40;;;;;;;;;;;7.10;99.90;;;;;;5081252;28;1909;-74
2023/01/12 01:56:10;;;;;;;;;;;7.10;99.90;;;;;;5080109;28;1146;-73
2023/01/12 01:58:39;;;;;;;;;;;7.00;99.90;;;;;;5080631;28;1040;-73
2023/01/12 02:01:05;;;;;;;;;;;7.00;99.90;;;;;;5081139;28;984;-74
2023/01/12 02:03:31;;;;;;;;;;;7.00;99.90;;;;;;5080203;28;1228;-74
2023/01/12 02:05:57;;;;;;;;;;;7.00;99.90;;;;;;5080451;28;1063;-73
2023/01/12 02:08:23;;;;;;;;;;;7.10;99.90;;;;;;5060994;28;1041;-73
2023/01/12 02:10:50;;;;;;;;;;;7.00;99.90;;;;;;5081830;28;986;-74
2023/01/12 02:18:51;;;;;;;;;;;7.30;99.90;;;;;;5062130;28;973;-74
2023/01/12 02:21:29;;;;;;;;;;;7.50;99.90;;;;;;5079829;28;988;-74
2023/01/12 02:24:15;;;;;;;;;;;7.50;99.90;;;;;;5080176;28;1053;-74
2023/01/12 02:26:50;;;;;;;;;;;7.50;99.90;;;;;;5061136;28;999;-73
2023/01/12 02:29:29;;;;;;;;;;;7.50;99.90;;;;;;5063004;28;1009;-74
2023/01/12 02:31:55;;;;;;;;;;;7.60;99.90;;;;;;5061322;28;1033;-74
2023/01/12 02:34:24;;;;;;;;;;;7.60;99.90;;;;;;5078801;28;1910;-74
2023/01/12 02:36:59;;;;;;;;;;;7.50;99.90;;;;;;5080093;28;1048;-74
2023/01/12 02:39:28;;;;;;;;;;;7.40;99.90;;;;;;5062198;28;1041;-74
2023/01/12 02:44:57;;;;;;;;;;;7.40;99.90;;;;;;5079978;28;1036;-72
2023/01/12 02:47:27;;;;;;;;;;;7.40;99.90;;;;;;5079221;28;1024;-72
2023/01/12 02:49:54;;;;;;;;;;;7.30;99.90;;;;;;5080574;28;1092;-73
2023/01/12 02:52:23;;;;;;;;;;;7.30;99.90;;;;;;5081500;28;1073;-73
2023/01/12 02:54:49;;;;;;;;;;;7.30;99.90;;;;;;5079183;28;1910;-73
2023/01/12 02:57:15;;;;;;;;;;;7.40;99.90;;;;;;5078547;28;1020;-74
2023/01/12 02:59:43;;;;;;;;;;;7.40;99.90;;;;;;5079896;28;1031;-75
2023/01/12 03:02:11;;;;;;;;;;;7.40;99.90;;;;;;5078539;28;1001;-74
2023/01/12 03:04:36;;;;;;;;;;;7.50;99.90;;;;;;5080470;28;1270;-75
2023/01/12 03:07:02;;;;;;;;;;;7.50;99.90;;;;;;5080796;28;1133;-74
2023/01/12 03:09:30;;;;;;;;;;;7.60;99.90;;;;;;5079319;28;1088;-74
2023/01/12 03:11:59;;;;;;;;;;;7.60;99.90;;;;;;5081556;28;1109;-74
2023/01/12 03:14:25;;;;;;;;;;;7.50;99.90;;;;;;5080119;28;1961;-75
2023/01/12 03:16:53;;;;;;;;;;;7.50;99.90;;;;;;5078581;28;1158;-74
2023/01/12 03:19:24;;;;;;;;;;;7.50;99.90;;;;;;5079722;28;1131;-75
2023/01/12 03:21:54;;;;;;;;;;;7.50;99.90;;;;;;5061176;28;1144;-75
2023/01/12 03:24:22;;;;;;;;;;;7.50;99.90;;;;;;5060518;28;1100;-74
2023/01/12 03:26:49;;;;;;;;;;;7.50;99.90;;;;;;5061429;28;1151;-74
2023/01/12 03:29:21;;;;;;;;;;;7.50;99.90;;;;;;5079282;28;1128;-74
2023/01/12 03:31:47;;;;;;;;;;;7.50;99.90;;;;;;5060405;28;1052;-74
2023/01/12 03:34:13;;;;;;;;;;;7.60;99.90;;;;;;5060080;28;1905;-74
2023/01/12 03:36:45;;;;;;;;;;;7.50;99.90;;;;;;5078131;28;998;-74
2023/01/12 03:39:12;;;;;;;;;;;7.60;99.90;;;;;;5079272;28;1123;-74
2023/01/12 03:41:48;;;;;;;;;;;7.60;99.90;;;;;;5078044;28;989;-74
2023/01/12 03:44:18;;;;;;;;;;;7.50;99.90;;;;;;5077851;28;1036;-74
2023/01/12 03:46:47;;;;;;;;;;;7.60;99.90;;;;;;5078757;28;1035;-74
2023/01/12 03:49:16;;;;;;;;;;;7.60;99.90;;;;;;5078341;28;1097;-74
2023/01/12 03:51:44;;;;;;;;;;;7.60;99.90;;;;;;5059260;28;1080;-74
2023/01/12 03:54:10;;;;;;;;;;;7.60;99.90;;;;;;5060827;28;1918;-75
2023/01/12 03:56:36;;;;;;;;;;;7.60;99.90;;;;;;5077794;28;1169;-74
2023/01/12 03:59:03;;;;;;;;;;;7.70;99.90;;;;;;5077725;28;992;-74
2023/01/12 04:01:29;;;;;;;;;;;7.60;99.90;;;;;;5078470;28;1135;-74
2023/01/12 04:03:54;;;;;;;;;;;7.70;99.90;;;;;;5078656;28;1131;-74
2023/01/12 04:06:20;;;;;;;;;;;7.70;99.90;;;;;;5077594;28;1008;-74
2023/01/12 04:08:46;;;;;;;;;;;7.70;99.90;;;;;;5079454;28;1040;-74
2023/01/12 04:13:55;;;;;;;;;;;7.80;99.90;;;;;;5059853;28;2027;-74
2023/01/12 04:16:21;;;;;;;;;;;7.80;99.90;;;;;;5078851;28;1014;-74
2023/01/12 04:18:47;;;;;;;;;;;7.80;99.90;;;;;;5058893;28;1072;-74
2023/01/12 04:23:57;;;;;;;;;;;7.80;99.90;;;;;;5077939;28;1144;-74
2023/01/12 04:26:22;;;;;;;;;;;7.80;99.90;;;;;;5077446;28;1013;-74
2023/01/12 04:28:48;;;;;;;;;;;7.80;99.90;;;;;;5077961;28;996;-74
2023/01/12 04:31:14;;;;;;;;;;;7.80;99.90;;;;;;5077885;28;1004;-74
2023/01/12 04:33:41;;;;;;;;;;;7.80;99.90;;;;;;5058824;28;1977;-75
2023/01/12 04:36:07;;;;;;;;;;;7.70;99.90;;;;;;5078232;28;1066;-75
2023/01/12 04:38:32;;;;;;;;;;;7.70;99.90;;;;;;5078345;28;1128;-75
2023/01/12 04:40:58;;;;;;;;;;;7.70;99.90;;;;;;5077231;28;1306;-75
2023/01/12 04:43:23;;;;;;;;;;;7.70;99.90;;;;;;5059921;28;1058;-75
2023/01/12 04:45:49;;;;;;;;;;;7.70;99.90;;;;;;5077986;28;1063;-76
2023/01/12 04:48:15;;;;;;;;;;;7.70;99.90;;;;;;5077388;28;1013;-75
2023/01/12 04:50:41;;;;;;;;;;;7.70;99.90;;;;;;5077524;28;1072;-75
2023/01/12 04:53:08;;;;;;;;;;;7.70;99.90;;;;;;5077407;28;1975;-75
2023/01/12 04:55:35;;;;;;;;;;;7.70;99.90;;;;;;5075977;28;1064;-76
2023/01/12 04:58:00;;;;;;;;;;;7.70;99.90;;;;;;5050688;28;1213;-76
2023/01/12 05:00:26;;;;;;;;;;;7.80;99.90;;;;;;5078797;28;996;-76
2023/01/12 05:02:58;;;;;;;;;;;7.70;99.90;;;;;;5076343;28;1162;-77
2023/01/12 05:05:24;;;;;;;;;;;7.70;99.90;;;;;;5078655;28;1141;-76
2023/01/12 05:10:34;;;;;;;;;;;7.70;99.90;;;;;;5077365;28;1191;-76
2023/01/12 05:13:00;;;;;;;;;;;7.70;99.90;;;;;;5059713;28;1914;-76
2023/01/12 05:15:25;;;;;;;;;;;7.70;99.90;;;;;;5076618;28;1043;-76
2023/01/12 05:17:53;;;;;;;;;;;7.60;99.90;;;;;;5077928;28;966;-75
2023/01/12 05:20:19;;;;;;;;;;;7.50;99.90;;;;;;5077400;28;1047;-75
2023/01/12 05:22:47;;;;;;;;;;;7.60;99.90;;;;;;5076892;28;1024;-75
2023/01/12 05:25:13;;;;;;;;;;;7.60;99.90;;;;;;5077606;28;1004;-75
2023/01/12 05:27:39;;;;;;;;;;;7.50;99.90;;;;;;5059636;28;1087;-74
2023/01/12 05:30:05;;;;;;;;;;;7.50;99.90;;;;;;5076776;28;1301;-73
2023/01/12 05:32:35;;;;;;;;;;;7.50;99.90;;;;;;5077472;28;1000;-72
2023/01/12 05:35:00;;;;;;;;;;;7.50;99.90;;;;;;5077879;28;1972;-71
2023/01/12 05:37:27;;;;;;;;;;;7.60;99.90;;;;;;5076594;28;1072;-71
2023/01/12 05:39:52;;;;;;;;;;;7.60;99.90;;;;;;5077152;28;993;-71
2023/01/12 05:45:03;;;;;;;;;;;7.70;99.90;;;;;;5080666;28;1043;-71
2023/01/12 05:47:28;;;;;;;;;;;7.70;99.90;;;;;;5080316;28;1154;-71
2023/01/12 05:49:54;;;;;;;;;;;7.70;99.90;;;;;;5082606;28;1038;-71
2023/01/12 05:52:19;;;;;;;;;;;7.70;99.90;;;;;;5080351;28;1000;-71
2023/01/12 05:54:45;;;;;;;;;;;7.60;99.90;;;;;;5080363;28;1913;-72
2023/01/12 05:57:11;;;;;;;;;;;7.60;99.90;;;;;;5080071;28;1175;-72
2023/01/12 05:59:36;;;;;;;;;;;7.60;99.90;;;;;;5080574;28;1192;-72
2023/01/12 06:02:02;;;;;;;;;;;7.60;99.90;;;;;;5080701;28;1048;-72
2023/01/12 06:04:28;;;;;;;;;;;7.60;99.90;;;;;;5080515;28;1203;-73
2023/01/12 06:06:53;;;;;;;;;;;7.50;99.90;;;;;;5080883;28;976;-73
2023/01/12 06:09:19;;;;;;;;;;;7.50;99.90;;;;;;5062500;28;1171;-73
2023/01/12 06:14:29;;;;;;;;;;;7.50;99.90;;;;;;5080408;28;1906;-73
2023/01/12 06:16:55;;;;;;;;;;;7.50;99.90;;;;;;5062283;28;1025;-73
2023/01/12 06:19:20;;;;;;;;;;;7.50;99.90;;;;;;5079814;28;1021;-73
2023/01/12 06:21:46;;;;;;;;;;;7.50;99.90;;;;;;5062475;28;1669;-73
2023/01/12 06:24:12;;;;;;;;;;;7.50;99.90;;;;;;5079912;28;1017;-73
2023/01/12 06:26:37;;;;;;;;;;;7.50;99.90;;;;;;5080061;28;1000;-73
2023/01/12 06:29:05;;;;;;;;;;;7.50;99.90;;;;;;5080043;28;985;-73
2023/01/12 06:31:31;;;;;;;;;;;7.50;99.90;;;;;;5079531;28;1012;-73
2023/01/12 06:33:57;;;;;;;;;;;7.50;99.90;;;;;;5079695;28;1987;-74
2023/01/12 06:36:22;;;;;;;;;;;7.60;99.90;;;;;;5079792;28;961;-73
2023/01/12 06:38:48;;;;;;;;;;;7.60;99.90;;;;;;5080236;28;974;-73
2023/01/12 06:44:09;;;;;;;;;;;7.70;99.90;;;;;;5079266;28;1048;-73
2023/01/12 06:46:35;;;;;;;;;;;7.70;99.90;;;;;;5060887;28;1674;-74
2023/01/12 06:49:01;;;;;;;;;;;7.80;99.90;;;;;;5079383;28;1159;-75
2023/01/12 06:51:27;;;;;;;;;;;7.80;99.90;;;;;;5079539;28;1160;-75
2023/01/12 06:53:53;;;;;;;;;;;7.80;99.90;;;;;;5078223;28;1922;-75
2023/01/12 06:56:18;;;;;;;;;;;7.90;99.90;;;;;;5078958;28;1138;-74
2023/01/12 06:58:44;;;;;;;;;;;7.90;99.90;;;;;;5079802;28;1025;-74
2023/01/12 07:01:10;;;;;;;;;;;7.90;99.90;;;;;;5078612;28;985;-75
2023/01/12 07:03:35;;;;;;;;;;;8.00;99.90;;;;;;5079759;28;1186;-74
2023/01/12 07:06:01;;;;;;;;;;;8.00;99.90;;;;;;5079099;28;1346;-74
2023/01/12 07:08:27;;;;;;;;;;;8.00;99.90;;;;;;5079309;28;994;-74
2023/01/12 07:10:52;;;;;;;;;;;8.10;99.90;;;;;;5080440;28;961;-74
2023/01/12 07:13:18;;;;;;;;;;;8.10;99.90;;;;;;5078967;28;1882;-74
2023/01/12 07:15:44;;;;;;;;;;;8.10;99.90;;;;;;5078294;28;1254;-74
2023/01/12 07:18:09;;;;;;;;;;;8.20;99.90;;;;;;5078654;28;1227;-74
2023/01/12 07:20:35;;;;;;;;;;;8.30;99.90;;;;;;5079389;28;1036;-74
2023/01/12 07:23:01;;;;;;;;;;;8.30;99.90;;;;;;5077444;28;1215;-74
2023/01/12 07:25:27;;;;;;;;;;;8.30;99.90;;;;;;5080021;28;1235;-74
2023/01/12 07:27:53;;;;;;;;;;;8.30;99.90;;;;;;5081443;28;1069;-73
2023/01/12 07:30:20;;;;;;;;;;;8.40;99.90;;;;;;5081570;28;1024;-74
2023/01/12 07:32:46;;;;;;;;;;;8.50;99.90;;;;;;5080815;28;1230;-73
2023/01/12 07:35:12;;;;;;;;;;;8.40;99.90;;;;;;5083267;28;1910;-73
2023/01/12 07:37:38;;;;;;;;;;;8.40;99.90;;;;;;5078617;28;1092;-73
2023/01/12 07:40:04;;;;;;;;;;;8.50;99.90;;;;;;5078324;28;973;-73
2023/01/12 07:42:30;;;;;;;;;;;8.50;99.90;;;;;;5078091;28;993;-73
2023/01/12 07:44:55;;;;;;;;;;;8.60;99.90;;;;;;5060504;28;1033;-73
2023/01/12 07:47:21;;;;;;;;;;;8.60;99.90;;;;;;5078634;28;953;-74
2023/01/12 07:49:47;;;;;;;;;;;8.60;99.90;;;;;;5078137;28;992;-73
2023/01/12 07:52:13;;;;;;;;;;;8.60;99.90;;;;;;5078008;28;1036;-73
2023/01/12 07:54:38;;;;;;;;;;;8.70;99.90;;;;;;5060476;28;1918;-73
2023/01/12 07:57:07;;;;;;;;;;;8.70;99.90;;;;;;5059479;28;1113;-73
2023/01/12 07:59:33;;;;;;;;;;;8.70;99.90;;;;;;5059479;28;1050;-72
2023/01/12 08:01:58;;;;;;;;;;;8.80;99.90;;;;;;5078878;28;1017;-72
2023/01/12 08:04:24;;;;;;;;;;;8.80;99.90;;;;;;5078296;28;1336;-72
2023/01/12 08:06:50;;;;;;;;;;;8.90;99.90;;;;;;5077043;28;1018;-72
2023/01/12 08:09:15;;;;;;;;;;;8.80;99.90;;;;;;5078822;28;957;-72
2023/01/12 08:11:41;;;;;;;;;;;8.90;99.90;;;;;;5077948;28;1073;-72
2023/01/12 08:14:07;;;;;;;;;;;8.90;99.90;;;;;;5060180;28;1980;-72
2023/01/12 08:16:36;;;;;;;;;;;8.90;99.90;;;;;;5077952;28;1017;-72
2023/01/12 08:19:04;;;;;;;;;;;9.00;99.90;;;;;;5078468;28;1007;-72
2023/01/12 08:21:33;;;;;;;;;;;9.00;99.90;;;;;;5078317;28;1026;-73
2023/01/12 08:24:00;;;;;;;;;;;9.20;99.90;;;;;;5060174;28;1045;-71
2023/01/12 08:26:29;;;;;;;;;;;9.20;99.90;;;;;;5077248;28;1184;-72
2023/01/12 08:28:58;;;;;;;;;;;9.30;99.90;;;;;;5077993;28;974;-72
2023/01/12 08:31:25;;;;;;;;;;;9.30;99.90;;;;;;5078043;28;1152;-71
2023/01/12 08:33:51;;;;;;;;;;;9.40;99.90;;;;;;5077392;28;1913;-71
2023/01/12 08:36:18;;;;;;;;;;;9.50;99.90;;;;;;5077321;28;2367;-71
2023/01/12 08:38:43;;;;;;;;;;;9.50;99.90;;;;;;5078640;28;2497;-71
2023/01/12 08:44:00;;;;;;;;;;;9.60;99.90;;;;;;5075758;28;1189;-71
2023/01/12 08:46:27;;;;;;;;;;;9.60;99.90;;;;;;5077935;28;988;-71
2023/01/12 08:48:52;;;;;;;;;;;9.70;99.90;;;;;;5076169;28;1241;-71
2023/01/12 08:51:18;;;;;;;;;;;9.70;99.90;;;;;;5075031;28;1424;-71
2023/01/12 08:53:44;;;;;;;;;;;9.70;99.90;;;;;;5074819;28;2397;-70
2023/01/12 08:56:10;;;;;;;;;;;9.70;99.90;;;;;;5075554;28;1274;-71
2023/01/12 08:58:35;;;;;;;;;;;9.70;99.90;;;;;;5074937;28;1437;-71
2023/01/12 09:01:08;;;;;;;;;;;9.80;99.90;;;;;;5073591;28;1055;-71
2023/01/12 09:03:34;;;;;;;;;;;9.80;99.90;;;;;;5078440;28;1223;-71
2023/01/12 09:06:07;;;;;;;;;;;9.80;99.90;;;;;;5077434;28;1151;-71
2023/01/12 09:08:32;;;;;;;;;;;9.80;99.90;;;;;;5076649;28;1087;-71
2023/01/12 09:11:02;;;;;;;;;;;9.80;99.90;;;;;;5079168;28;1218;-71
2023/01/12 09:13:28;;;;;;;;;;;9.90;99.90;;;;;;5077110;28;1969;-70
2023/01/12 09:15:53;;;;;;;;;;;9.90;99.90;;;;;;5077413;28;909;-70
2023/01/12 09:18:19;;;;;;;;;;;9.90;99.90;;;;;;5062610;28;1072;-70
2023/01/12 09:20:45;;;;;;;;;;;9.90;99.90;;;;;;5081741;28;1069;-70
2023/01/12 09:23:10;;;;;;;;;;;9.90;99.90;;;;;;5062798;28;981;-70
2023/01/12 09:25:36;;;;;;;;;;;10.00;99.90;;;;;;5081364;28;1140;-70
2023/01/12 09:28:02;;;;;;;;;;;9.90;99.90;;;;;;5061131;28;2428;-71
2023/01/12 09:30:27;;;;;;;;;;;9.90;99.90;;;;;;5078901;28;2287;-71
2023/01/12 09:32:53;;;;;;;;;;;9.90;99.90;;;;;;5078804;28;1140;-71
2023/01/12 09:35:20;;;;;;;;;;;9.90;99.90;;;;;;5077733;28;2229;-70
2023/01/12 09:37:46;;;;;;;;;;;10.00;99.90;;;;;;5078398;28;1390;-71
2023/01/12 09:40:12;;;;;;;;;;;9.90;99.90;;;;;;5081056;28;1151;-71
2023/01/12 09:48:09;;;;;;;;;;;10.00;99.90;;;;;;5079327;28;1274;-70
2023/01/12 09:50:38;;;;;;;;;;;10.00;99.90;;;;;;5077418;28;1143;-70
2023/01/12 09:53:17;;;;;;;;;;;10.00;99.90;;;;;;5075367;28;1906;-71
2023/01/12 09:55:48;;;;;;;;;;;10.10;99.90;;;;;;5081245;28;1349;-70
2023/01/12 09:58:27;;;;;;;;;;;10.10;99.90;;;;;;5077723;28;1083;-70
2023/01/12 10:00:53;;;;;;;;;;;10.10;99.90;;;;;;5079089;28;989;-70
2023/01/12 10:03:23;;;;;;;;;;;10.10;99.90;;;;;;5058617;28;1444;-71
2023/01/12 10:05:51;;;;;;;;;;;10.10;99.90;;;;;;5079910;28;1135;-71
2023/01/12 10:08:22;;;;;;;;;;;10.10;99.90;;;;;;5077381;28;1059;-71
2023/01/12 10:10:57;;;;;;;;;;;10.10;99.90;;;;;;5059757;28;1328;-71
2023/01/12 10:13:24;;;;;;;;;;;10.10;99.90;;;;;;5075921;28;1910;-71
2023/01/12 10:15:52;;;;;;;;;;;10.20;99.90;;;;;;5076972;28;1043;-71
2023/01/12 10:18:29;;;;;;;;;;;10.20;99.90;;;;;;5077688;28;1533;-71
2023/01/12 10:20:56;;;;;;;;;;;10.30;99.90;;;;;;5077308;28;1369;-70
2023/01/12 10:23:25;;;;;;;;;;;10.20;99.90;;;;;;5079236;28;1738;-71
2023/01/12 10:25:58;;;;;;;;;;;10.20;99.90;;;;;;5061012;28;1153;-72
2023/01/12 10:28:32;;;;;;;;;;;10.10;99.90;;;;;;5078072;28;982;-71
2023/01/12 10:30:58;;;;;;;;;;;10.10;99.90;;;;;;5079705;28;1432;-71
2023/01/12 10:33:26;;;;;;;;;;;10.10;99.90;;;;;;5084054;28;1918;-71
2023/01/12 10:35:57;;;;;;;;;;;10.10;99.90;;;;;;5082579;28;1133;-70
2023/01/12 10:38:25;;;;;;;;;;;10.10;99.90;;;;;;5077416;28;1403;-70
2023/01/12 10:41:09;;;;;;;;;;;10.10;99.90;;;;;;5076294;28;1399;-70
2023/01/12 10:43:35;;;;;;;;;;;10.20;99.90;;;;;;5084484;28;1246;-70
2023/01/12 10:46:00;;;;;;;;;;;10.20;99.90;;;;;;5079576;28;1290;-70
2023/01/12 10:48:26;;;;;;;;;;;10.20;99.90;;;;;;5085932;28;1094;-71
2023/01/12 10:50:59;;;;;;;;;;;10.20;99.90;;;;;;5080177;28;1346;-71
2023/01/12 10:53:28;;;;;;;;;;;10.10;99.90;;;;;;5079254;28;1929;-71
2023/01/12 10:55:54;;;;;;;;;;;10.10;99.90;;;;;;5079143;28;1349;-71
2023/01/12 10:58:24;;;;;;;;;;;10.10;99.90;;;;;;5079588;28;1214;-71
2023/01/12 11:00:51;;;;;;;;;;;10.10;99.90;;;;;;5078824;28;1043;-71
2023/01/12 11:03:28;;;;;;;;;;;10.10;99.90;;;;;;5080449;28;1210;-70
2023/01/12 11:05:53;;;;;;;;;;;10.10;99.90;;;;;;5079425;28;1162;-71
2023/01/12 11:08:24;;;;;;;;;;;10.10;99.90;;;;;;5078149;28;981;-72
2023/01/12 11:10:50;;;;;;;;;;;10.10;99.90;;;;;;5081505;28;961;-71
2023/01/12 11:13:35;;;;;;;;;;;10.20;99.90;;;;;;5079056;28;1975;-70
2023/01/12 11:16:05;;;;;;;;;;;10.10;99.90;;;;;;5078818;28;1017;-70
2023/01/12 11:18:37;;;;;;;;;;;10.10;99.90;;;;;;5079698;28;992;-70
2023/01/12 11:21:07;;;;;;;;;;;10.20;99.90;;;;;;5079350;28;1015;-69
2023/01/12 11:23:40;;;;;;;;;;;10.20;99.90;;;;;;5061054;28;1218;-69
2023/01/12 11:26:13;;;;;;;;;;;10.20;99.90;;;;;;5079447;28;1067;-70
2023/01/12 11:28:42;;;;;;;;;;;10.20;99.90;;;;;;5079275;28;1166;-70
2023/01/12 11:31:09;;;;;;;;;;;10.20;99.90;;;;;;5078372;28;1025;-69
2023/01/12 11:33:40;;;;;;;;;;;10.30;99.90;;;;;;5079578;28;1932;-69
2023/01/12 11:36:07;;;;;;;;;;;10.30;99.90;;;;;;5080213;28;1061;-69
2023/01/12 11:38:37;;;;;;;;;;;10.40;99.90;;;;;;5081602;28;1348;-70
2023/01/12 11:41:06;;;;;;;;;;;10.30;99.90;;;;;;5081174;28;1000;-69
2023/01/12 11:43:48;;;;;;;;;;;10.30;99.90;;;;;;5080717;28;1097;-69
2023/01/12 11:46:27;;;;;;;;;;;10.30;99.90;;;;;;5078166;28;1080;-69
2023/01/12 11:49:00;;;;;;;;;;;10.40;99.90;;;;;;5059311;28;1018;-69
2023/01/12 11:51:26;;;;;;;;;;;10.30;99.90;;;;;;5060272;28;994;-69
2023/01/12 11:53:52;;;;;;;;;;;10.40;99.90;;;;;;5078405;28;1938;-70
2023/01/12 11:56:29;;;;;;;;;;;10.40;99.90;;;;;;5077326;28;1300;-69
2023/01/12 11:59:12;;;;;;;;;;;10.40;99.90;;;;;;5077685;28;1123;-70
2023/01/12 12:01:40;;;;;;;;;;;10.40;99.90;;;;;;5078636;28;1049;-70
2023/01/12 12:04:16;;;;;;;;;;;10.40;99.90;;;;;;5078680;28;1223;-69
2023/01/12 12:06:45;;;;;;;;;;;10.50;99.90;;;;;;5060350;28;991;-70
2023/01/12 12:09:25;;;;;;;;;;;10.50;99.90;;;;;;5079016;28;1056;-69
2023/01/12 12:11:56;;;;;;;;;;;10.50;99.90;;;;;;5078904;28;977;-70
2023/01/12 12:14:29;;;;;;;;;;;10.70;99.90;;;;;;5078315;28;1967;-70
2023/01/12 12:17:00;;;;;;;;;;;11.20;99.90;;;;;;5077886;28;1047;-70
2023/01/12 12:19:25;;;;;;;;;;;10.60;99.90;;;;;;5078373;28;906;-70
2023/01/12 12:22:02;;;;;;;;;;;10.70;99.90;;;;;;5077945;28;1053;-70
2023/01/12 12:24:29;;;;;;;;;;;10.70;99.90;;;;;;5076982;28;1073;-70
2023/01/12 12:27:13;;;;;;;;;;;10.80;99.90;;;;;;5076605;28;2190;-71
2023/01/12 12:29:55;;;;;;;;;;;10.80;99.90;;;;;;5077907;28;977;-70
2023/01/12 12:32:22;;;;;;;;;;;10.90;99.90;;;;;;5077348;28;1095;-70
2023/01/12 12:34:55;;;;;;;;;;;11.00;99.90;;;;;;5076131;28;2449;-70
2023/01/12 12:37:21;;;;;;;;;;;11.00;99.90;;;;;;5076630;28;2302;-70
2023/01/12 12:39:53;;;;;;;;;;;11.10;99.90;;;;;;5076600;28;1173;-70
2023/01/12 12:45:16;;;;;;;;;;;11.10;99.90;;;;;;5074238;28;1256;-71
2023/01/12 12:47:48;;;;;;;;;;;11.20;99.90;;;;;;5075175;28;1067;-70
2023/01/12 12:50:23;;;;;;;;;;;11.20;99.90;;;;;;5075137;28;1043;-70
2023/01/12 12:52:59;;;;;;;;;;;11.10;99.90;;;;;;5077266;28;2276;-70
2023/01/12 12:55:25;;;;;;;;;;;11.10;99.90;;;;;;5079006;28;1910;-70
2023/01/12 12:57:58;;;;;;;;;;;11.10;99.90;;;;;;5079708;28;1343;-70
2023/01/12 13:00:29;;;;;;;;;;;11.10;99.90;;;;;;5059236;28;1104;-70
2023/01/12 13:02:54;;;;;;;;;;;11.10;99.90;;;;;;5061934;28;1400;-70
2023/01/12 13:05:39;;;;;;;;;;;11.00;99.90;;;;;;5079797;28;1090;-70
2023/01/12 13:08:14;;;;;;;;;;;10.00;99.90;;;;;;5079014;28;1293;-70
2023/01/12 13:10:46;;;;;;;;;;;10.90;99.90;;;;;;5080629;28;1071;-71
2023/01/12 13:13:22;;;;;;;;;;;10.80;99.90;;;;;;5076204;28;1986;-70
2023/01/12 13:15:48;;;;;;;;;;;10.70;99.90;;;;;;5080490;28;1362;-70
2023/01/12 13:18:34;;;;;;;;;;;10.60;99.90;;;;;;5079780;28;1144;-70
2023/01/12 13:21:00;;;;;;;;;;;10.60;99.90;;;;;;5077169;28;2109;-69
2023/01/12 13:23:39;;;;;;;;;;;10.60;99.90;;;;;;5078883;28;1217;-70
2023/01/12 13:26:18;;;;;;;;;;;10.60;99.90;;;;;;5077664;28;991;-71
2023/01/12 13:28:44;;;;;;;;;;;10.50;99.90;;;;;;5080659;28;1329;-70
2023/01/12 13:31:29;;;;;;;;;;;10.60;99.90;;;;;;5079352;28;1849;-70
2023/01/12 13:34:14;;;;;;;;;;;10.60;99.90;;;;;;5079412;28;1902;-70
2023/01/12 13:36:41;;;;;;;;;;;10.60;99.90;;;;;;5079183;28;1746;-70
2023/01/12 13:39:09;;;;;;;;;;;10.60;99.90;;;;;;5078418;28;2372;-71
2023/01/12 13:44:23;;;;;;;;;;;10.50;99.90;;;;;;5079023;28;1282;-70
2023/01/12 13:46:50;;;;;;;;;;;10.50;99.90;;;;;;5080062;28;2232;-70
2023/01/12 13:49:34;;;;;;;;;;;10.50;99.90;;;;;;5077458;28;1200;-70
2023/01/12 13:52:01;;;;;;;;;;;10.50;99.90;;;;;;5060122;28;1072;-70
2023/01/12 13:54:27;;;;;;;;;;;10.50;99.90;;;;;;5077572;28;1923;-70
2023/01/12 13:56:57;;;;;;;;;;;10.50;99.90;;;;;;5076894;28;2309;-71
2023/01/12 13:59:24;;;;;;;;;;;10.50;99.90;;;;;;5060898;28;1266;-71
2023/01/12 14:01:50;;;;;;;;;;;10.50;99.90;;;;;;5078341;28;989;-71
2023/01/12 14:04:16;;;;;;;;;;;10.50;99.90;;;;;;5077909;28;1030;-71
2023/01/12 14:06:55;;;;;;;;;;;10.50;99.90;;;;;;5078141;28;1228;-70
2023/01/12 14:09:28;;;;;;;;;;;10.50;99.90;;;;;;5076918;28;1187;-71
2023/01/12 14:11:58;;;;;;;;;;;10.50;99.90;;;;;;5077050;28;1100;-71
2023/01/12 14:20:12;;;;;;;;;;;10.60;99.90;;;;;;5058772;28;1088;-70
2023/01/12 14:22:38;;;;;;;;;;;10.70;99.90;;;;;;5060952;28;1240;-70
2023/01/12 14:25:19;;;;;;;;;;;10.70;99.90;;;;;;5077398;28;1201;-70
2023/01/12 14:27:51;;;;;;;;;;;10.70;99.90;;;;;;5079995;28;1405;-71
2023/01/12 14:30:18;;;;;;;;;;;10.70;99.90;;;;;;5079048;28;1200;-71
2023/01/12 14:32:44;;;;;;;;;;;10.70;99.90;;;;;;5076245;28;1457;-71
2023/01/12 14:35:18;;;;;;;;;;;10.60;99.90;;;;;;5078589;28;1980;-71
2023/01/12 14:37:51;;;;;;;;;;;10.60;99.90;;;;;;5059497;28;1154;-71
2023/01/12 14:40:18;;;;;;;;;;;10.60;99.90;;;;;;5077981;28;1520;-70
2023/01/12 14:48:22;;;;;;;;;;;10.50;99.90;;;;;;5078034;28;1448;-71
2023/01/12 14:50:59;;;;;;;;;;;10.60;99.90;;;;;;5076681;28;1165;-71
2023/01/12 14:53:33;;;;;;;;;;;10.60;99.90;;;;;;5075939;28;1906;-71
2023/01/12 14:56:07;;;;;;;;;;;10.40;99.90;;;;;;5077400;28;1322;-70
2023/01/12 14:58:33;;;;;;;;;;;10.60;99.90;;;;;;5075014;28;1298;-71
2023/01/12 15:00:59;;;;;;;;;;;10.60;99.90;;;;;;5077500;28;1403;-71
2023/01/12 15:03:25;;;;;;;;;;;10.60;99.90;;;;;;5077074;28;1361;-71
2023/01/12 15:05:53;;;;;;;;;;;10.60;99.90;;;;;;5057893;28;1381;-71
2023/01/12 15:08:20;;;;;;;;;;;10.60;99.90;;;;;;5076233;28;1522;-71
2023/01/12 15:10:55;;;;;;;;;;;10.60;99.90;;;;;;5063176;28;1127;-70
2023/01/12 15:13:25;;;;;;;;;;;10.50;99.90;;;;;;5074799;28;1922;-70
2023/01/12 15:27:06;;;;;;;;;;;10.20;99.90;;;;;;5078844;28;1008;-71
2023/01/12 15:29:32;;;;;;;;;;;10.10;99.90;;;;;;5078731;28;1001;-71
2023/01/12 15:31:57;;;;;;;;;;;10.10;99.90;;;;;;5061197;28;1108;-72
2023/01/12 15:34:23;;;;;;;;;;;10.10;99.90;;;;;;5077531;28;2193;-71
2023/01/12 15:36:49;;;;;;;;;;;10.10;99.90;;;;;;5062672;28;1066;-71
2023/01/12 15:39:14;;;;;;;;;;;10.00;99.90;;;;;;5078686;28;1132;-71
2023/01/12 15:44:25;;;;;;;;;;;10.10;99.90;;;;;;5079437;28;1008;-71
2023/01/12 15:46:51;;;;;;;;;;;10.00;99.90;;;;;;5078424;28;1028;-72
2023/01/12 15:49:17;;;;;;;;;;;10.00;99.90;;;;;;5077410;28;1033;-72
2023/01/12 15:51:45;;;;;;;;;;;10.00;99.90;;;;;;5082318;28;1131;-71
2023/01/12 15:54:11;;;;;;;;;;;10.00;99.90;;;;;;5081623;28;1987;-71
2023/01/12 15:56:37;;;;;;;;;;;9.90;99.90;;;;;;5079425;28;1254;-71